Ferrisburg, Vermont
Current Conditions -  °F | °C
As of 3:15 PM on Thursday 18 Dec 2014 (Local Time) from K6B0 Reporting Station
Overcast Overcast  
Wind Chill: 25°   Ceiling: 3000
Heat Index: 33°   Visibility: 10mi
Dew Point: 30°   Wind: 9mph
Humidity: 89%   Direction: 360°N
Pressure: 29.85"   Gusts: NA
Location:  44.2128°N, 73.2586°W
Report Text: K6B0 182015Z AUTO 36008KT 10SM BKN030 OVC035 01/M01 A2985 RMK AO2 T00061010
Loading
Personal Weather Stations






























Interactive Weather Map New forecast layout! Learn more

10-Day Weather Forecast

Advertisements
Track Severe Weather on mobile